createdAt,value
2022-11-29T00:01:43.497Z,46.10
2022-11-29T00:04:10.903Z,45.15
2022-11-29T00:06:38.829Z,52.05
2022-11-29T00:11:52.638Z,48.70
2022-11-29T00:14:21.908Z,69.97
2022-11-29T00:16:51.386Z,46.20
2022-11-29T00:19:18.794Z,52.17
2022-11-29T00:21:46.155Z,80.05
2022-11-29T00:24:13.551Z,111.50
2022-11-29T00:26:40.905Z,149.63
2022-11-29T00:29:08.545Z,146.82
2022-11-29T00:31:37.294Z,86.18
2022-11-29T00:34:06.839Z,103.93
2022-11-29T00:36:34.279Z,132.27
2022-11-29T00:39:01.684Z,74.68
2022-11-29T00:41:29.147Z,110.32
2022-11-29T00:43:56.519Z,72.15
2022-11-29T00:46:25.071Z,95.40
2022-11-29T00:48:53.790Z,73.95
2022-11-29T00:51:21.221Z,69.60
2022-11-29T00:53:48.710Z,46.13
2022-11-29T00:56:16.179Z,45.72
2022-11-29T00:58:43.692Z,96.40
2022-11-29T01:01:11.583Z,75.32
2022-11-29T01:06:08.874Z,39.63
2022-11-29T01:08:36.597Z,59.38
2022-11-29T01:11:05.528Z,61.10
2022-11-29T01:13:32.942Z,56.80
2022-11-29T01:16:00.338Z,49.38
2022-11-29T01:18:27.825Z,64.22
2022-11-29T01:20:59.119Z,56.08
2022-11-29T01:23:27.914Z,59.10
2022-11-29T01:25:58.915Z,43.22
2022-11-29T01:28:26.683Z,47.30
2022-11-29T01:30:54.392Z,27.58
2022-11-29T01:33:22.035Z,54.05
2022-11-29T01:35:49.717Z,35.45
2022-11-29T01:38:17.241Z,40.67
2022-11-29T01:40:46.266Z,37.40
2022-11-29T01:43:15.377Z,46.72
2022-11-29T01:45:42.831Z,45.80
2022-11-29T01:48:10.350Z,43.15
2022-11-29T01:50:38.326Z,42.33
2022-11-29T01:55:33.216Z,49.28
2022-11-29T02:00:29.537Z,36.67
2022-11-29T02:02:58.120Z,32.75
2022-11-29T02:05:27.591Z,52.10
2022-11-29T02:07:55.851Z,69.38
2022-11-29T02:10:26.811Z,50.35
2022-11-29T02:13:00.785Z,41.72
2022-11-29T02:15:35.027Z,73.43
2022-11-29T02:18:05.712Z,62.72
2022-11-29T02:20:53.932Z,58.47
2022-11-29T02:23:29.145Z,46.17
2022-11-29T02:26:01.554Z,41.53
2022-11-29T02:28:45.971Z,44.47
2022-11-29T02:31:28.178Z,57.15
2022-11-29T02:34:02.381Z,53.22
2022-11-29T02:36:37.565Z,65.25
2022-11-29T02:39:20.170Z,44.28
2022-11-29T02:41:52.687Z,40.30
2022-11-29T02:44:29.218Z,41.85
2022-11-29T02:47:04.130Z,41.08
2022-11-29T02:49:42.414Z,43.88
2022-11-29T02:52:12.532Z,43.20
2022-11-29T02:54:46.776Z,63.55
2022-11-29T02:57:19.011Z,55.47
2022-11-29T02:59:49.473Z,59.70
2022-11-29T03:02:21.132Z,71.57
2022-11-29T03:04:51.556Z,82.22
2022-11-29T03:07:24.531Z,82.30
2022-11-29T03:09:56.731Z,81.78
2022-11-29T03:12:28.999Z,97.38
2022-11-29T03:14:58.413Z,87.88
2022-11-29T03:17:32.888Z,96.35
2022-11-29T03:20:07.767Z,106.53
2022-11-29T03:22:41.046Z,112.93
2022-11-29T03:25:09.879Z,85.30
2022-11-29T03:27:39.367Z,128.65
2022-11-29T03:30:09.885Z,110.40
2022-11-29T03:32:41.049Z,95.93
2022-11-29T03:35:13.621Z,89.75
2022-11-29T03:37:44.970Z,95.05
2022-11-29T03:40:13.668Z,112.18
2022-11-29T03:42:44.023Z,87.55
2022-11-29T03:45:15.261Z,71.28
2022-11-29T03:47:45.009Z,73.75
2022-11-29T03:50:15.633Z,92.93
2022-11-29T03:52:45.993Z,92.05
2022-11-29T03:55:26.410Z,109.22
2022-11-29T03:58:04.654Z,99.28
2022-11-29T04:00:36.463Z,127.38
2022-11-29T04:03:27.355Z,125.22
2022-11-29T04:06:01.246Z,127.70
2022-11-29T04:08:42.881Z,115.20
2022-11-29T04:11:28.278Z,104.72
2022-11-29T04:14:03.961Z,114.30
2022-11-29T04:16:46.205Z,94.07
2022-11-29T04:19:32.458Z,73.65
2022-11-29T04:22:08.194Z,88.75
2022-11-29T04:25:05.663Z,92.95
2022-11-29T04:30:06.851Z,102.30
2022-11-29T04:32:45.682Z,88.30
2022-11-29T04:35:21.261Z,87.13
2022-11-29T04:38:06.677Z,82.15
2022-11-29T04:40:45.334Z,79.90
2022-11-29T04:43:20.424Z,92.32
2022-11-29T04:45:58.570Z,88.82
2022-11-29T04:48:40.515Z,79.88
2022-11-29T04:51:13.816Z,81.22
2022-11-29T04:53:48.798Z,92.90
2022-11-29T04:56:21.355Z,71.13
2022-11-29T04:58:52.783Z,73.30
2022-11-29T05:01:23.247Z,84.10
2022-11-29T05:03:56.842Z,83.20
2022-11-29T05:06:28.615Z,81.95
2022-11-29T05:09:00.814Z,82.65
2022-11-29T05:11:36.947Z,74.05
2022-11-29T05:14:06.965Z,72.40
2022-11-29T05:16:43.503Z,73.13
2022-11-29T05:19:26.138Z,112.72
2022-11-29T05:22:00.147Z,80.38
2022-11-29T05:24:40.118Z,63.33
2022-11-29T05:27:13.368Z,115.20
2022-11-29T05:29:42.342Z,125.30
2022-11-29T05:32:21.400Z,134.63
2022-11-29T05:34:58.966Z,103.13
2022-11-29T05:37:31.021Z,132.00
2022-11-29T05:40:04.977Z,92.95
2022-11-29T05:42:41.276Z,103.70
2022-11-29T05:45:10.739Z,85.00
2022-11-29T05:47:42.126Z,100.15
2022-11-29T05:50:12.171Z,81.45
2022-11-29T05:52:44.718Z,85.05
2022-11-29T05:55:19.569Z,86.90
2022-11-29T05:57:53.860Z,92.80
2022-11-29T06:00:21.685Z,100.15
2022-11-29T06:02:52.871Z,103.40
2022-11-29T06:05:25.452Z,124.53
2022-11-29T06:07:54.762Z,126.82
2022-11-29T06:10:24.119Z,100.65
2022-11-29T06:12:58.095Z,111.22
2022-11-29T06:15:33.451Z,103.75
2022-11-29T06:18:09.471Z,104.78
2022-11-29T06:20:44.365Z,87.85
2022-11-29T06:23:18.486Z,78.53
2022-11-29T06:25:53.186Z,97.97
2022-11-29T06:28:27.631Z,105.38
2022-11-29T06:31:00.502Z,124.85
2022-11-29T06:33:32.203Z,94.78
2022-11-29T06:36:08.250Z,91.55
2022-11-29T06:38:35.802Z,82.20
2022-11-29T06:41:03.366Z,105.50
2022-11-29T06:43:33.504Z,113.43
2022-11-29T06:46:04.176Z,125.30
2022-11-29T06:48:35.601Z,89.78
2022-11-29T06:51:07.030Z,114.63
2022-11-29T06:53:38.063Z,80.35
2022-11-29T06:56:09.186Z,101.63
2022-11-29T06:58:42.729Z,103.53
2022-11-29T07:01:17.524Z,98.45
2022-11-29T07:03:55.726Z,100.85
2022-11-29T07:06:24.040Z,81.60
2022-11-29T07:08:53.319Z,147.05
2022-11-29T07:11:21.011Z,106.93
2022-11-29T07:13:50.041Z,117.28
2022-11-29T07:16:22.568Z,101.65
2022-11-29T07:18:54.102Z,87.80
2022-11-29T07:21:26.878Z,81.82
2022-11-29T07:24:00.729Z,111.20
2022-11-29T07:26:31.942Z,113.13
2022-11-29T07:29:05.803Z,105.00
2022-11-29T07:31:39.514Z,102.80
2022-11-29T07:34:12.583Z,100.25
2022-11-29T07:36:45.238Z,107.07
2022-11-29T07:39:20.756Z,77.18
2022-11-29T07:41:54.128Z,109.47
2022-11-29T07:44:27.129Z,69.40
2022-11-29T07:46:54.549Z,87.68
2022-11-29T07:49:21.946Z,82.22
2022-11-29T07:51:49.493Z,97.95
2022-11-29T07:54:18.733Z,92.30
2022-11-29T07:56:46.123Z,105.60
2022-11-29T07:59:14.472Z,87.70
2022-11-29T08:01:43.290Z,99.10
2022-11-29T08:04:10.767Z,85.50
2022-11-29T08:06:38.235Z,76.93
2022-11-29T08:09:06.748Z,82.15
2022-11-29T08:11:34.384Z,101.90
2022-11-29T08:14:02.511Z,87.03
2022-11-29T08:16:30.048Z,91.75
2022-11-29T08:18:58.869Z,82.30
2022-11-29T08:21:26.257Z,101.20
2022-11-29T08:23:53.681Z,70.70
2022-11-29T08:26:24.365Z,93.43
2022-11-29T08:28:54.190Z,101.00
2022-11-29T08:31:21.870Z,99.43
2022-11-29T08:33:49.401Z,91.03
2022-11-29T08:36:19.120Z,85.65
2022-11-29T08:38:46.512Z,92.75
2022-11-29T08:41:14.929Z,93.00
2022-11-29T08:43:42.639Z,71.75
2022-11-29T08:46:13.883Z,69.95
2022-11-29T08:48:45.758Z,74.95
2022-11-29T08:51:13.192Z,59.55
2022-11-29T08:53:45.922Z,98.15
2022-11-29T08:56:53.288Z,79.13
2022-11-29T08:59:01.558Z,71.55
2022-11-29T09:01:29.915Z,74.03
2022-11-29T09:04:00.232Z,84.20
2022-11-29T09:06:27.930Z,76.25
2022-11-29T09:08:57.218Z,79.15
2022-11-29T09:11:25.394Z,102.03
2022-11-29T09:13:54.060Z,80.38
2022-11-29T09:16:23.182Z,87.60
2022-11-29T09:18:52.140Z,96.72
2022-11-29T09:21:19.812Z,77.38
2022-11-29T09:23:47.450Z,99.28
2022-11-29T09:26:19.653Z,81.28
2022-11-29T09:28:47.285Z,80.57
2022-11-29T09:31:16.119Z,79.82
2022-11-29T09:33:43.563Z,67.88
2022-11-29T09:36:11.662Z,64.50
2022-11-29T09:38:39.239Z,81.70
2022-11-29T09:41:12.722Z,86.35
2022-11-29T09:43:45.546Z,81.80
2022-11-29T09:46:18.086Z,62.72
2022-11-29T09:49:06.480Z,75.60
2022-11-29T09:51:43.934Z,71.05
2022-11-29T09:56:40.364Z,58.25
2022-11-29T09:59:12.528Z,72.07
2022-11-29T10:01:41.644Z,74.15
2022-11-29T10:04:11.913Z,71.30
2022-11-29T10:06:40.843Z,65.78
2022-11-29T10:09:14.692Z,64.90
2022-11-29T10:11:44.606Z,65.07
2022-11-29T10:14:15.592Z,71.15
2022-11-29T10:16:45.537Z,74.55
2022-11-29T10:19:18.335Z,61.58
2022-11-29T10:21:49.602Z,71.55
2022-11-29T10:24:20.233Z,64.30
2022-11-29T10:26:47.660Z,77.63
2022-11-29T10:29:17.070Z,79.07
2022-11-29T10:31:46.716Z,67.55
2022-11-29T10:34:15.329Z,97.13
2022-11-29T10:36:44.232Z,74.55
2022-11-29T10:39:14.903Z,82.80
2022-11-29T10:41:42.401Z,81.30
2022-11-29T10:44:11.680Z,90.07
2022-11-29T10:46:40.983Z,89.13
2022-11-29T10:49:11.955Z,77.72
2022-11-29T10:51:39.815Z,82.72
2022-11-29T10:56:37.621Z,96.47
2022-11-29T10:59:09.132Z,91.00
2022-11-29T11:01:38.340Z,87.55
2022-11-29T11:04:10.716Z,85.82
2022-11-29T11:06:45.954Z,94.18
2022-11-29T11:09:15.281Z,104.10
2022-11-29T11:11:50.546Z,95.35
2022-11-29T11:14:20.713Z,95.03
2022-11-29T11:16:48.155Z,85.07
2022-11-29T11:19:28.254Z,82.10
2022-11-29T11:21:56.131Z,82.22
2022-11-29T11:24:25.114Z,92.90
2022-11-29T11:26:52.658Z,89.53
2022-11-29T11:29:21.927Z,89.38
2022-11-29T11:31:52.987Z,87.38
2022-11-29T11:34:29.958Z,95.07
2022-11-29T11:37:14.064Z,95.45
2022-11-29T11:39:41.862Z,86.60
2022-11-29T11:42:29.626Z,88.80
2022-11-29T11:44:57.251Z,81.22
2022-11-29T11:47:27.031Z,87.15
2022-11-29T11:49:57.374Z,84.32
2022-11-29T11:52:25.784Z,84.18
2022-11-29T11:54:55.151Z,78.57
2022-11-29T11:57:22.957Z,79.68
2022-11-29T11:59:50.578Z,83.50
2022-11-29T12:02:25.499Z,85.80
2022-11-29T12:04:53.646Z,94.68
2022-11-29T12:07:45.012Z,103.60
2022-11-29T12:10:18.298Z,103.68
2022-11-29T12:12:46.708Z,109.13
2022-11-29T12:15:18.206Z,91.95
2022-11-29T12:17:49.016Z,89.93
2022-11-29T12:20:19.903Z,106.35
2022-11-29T12:22:56.668Z,95.75
2022-11-29T12:25:25.331Z,102.43
2022-11-29T12:27:52.808Z,104.38
2022-11-29T12:30:20.801Z,97.22
2022-11-29T12:35:32.320Z,93.25
2022-11-29T12:38:05.204Z,106.72
2022-11-29T12:40:36.615Z,77.22
2022-11-29T12:43:09.739Z,98.07
2022-11-29T12:45:41.678Z,102.93
2022-11-29T12:48:19.623Z,97.40
2022-11-29T12:50:52.831Z,92.63
2022-11-29T12:53:29.650Z,92.78
2022-11-29T12:56:03.054Z,87.55
2022-11-29T12:58:33.860Z,92.95
2022-11-29T13:01:04.772Z,89.30
2022-11-29T13:03:34.995Z,94.32
2022-11-29T13:06:08.148Z,94.97
2022-11-29T13:08:46.325Z,90.28
2022-11-29T13:11:18.943Z,119.72
2022-11-29T13:13:48.548Z,99.63
2022-11-29T13:16:23.955Z,97.80
2022-11-29T13:18:58.015Z,96.88
2022-11-29T13:21:28.127Z,110.30
2022-11-29T13:24:09.095Z,113.47
2022-11-29T13:26:37.653Z,96.40
2022-11-29T13:31:33.284Z,99.43
2022-11-29T13:34:05.051Z,107.50
2022-11-29T13:36:41.029Z,110.88
2022-11-29T13:39:24.637Z,95.93
2022-11-29T13:41:56.208Z,101.07
2022-11-29T13:44:28.666Z,95.00
2022-11-29T13:47:03.531Z,111.57
2022-11-29T13:49:45.779Z,95.07
2022-11-29T13:52:24.244Z,95.90
2022-11-29T13:55:04.087Z,100.00
2022-11-29T13:58:14.421Z,113.25
2022-11-29T14:00:36.311Z,105.53
2022-11-29T14:03:22.351Z,97.32
2022-11-29T14:05:50.517Z,113.22
2022-11-29T14:08:24.843Z,116.32
2022-11-29T14:10:53.976Z,103.57
2022-11-29T14:13:22.974Z,104.60
2022-11-29T14:15:54.935Z,100.72
2022-11-29T14:18:47.512Z,109.55
2022-11-29T14:21:14.914Z,99.45
2022-11-29T14:23:42.485Z,120.95
2022-11-29T14:26:29.060Z,92.53
2022-11-29T14:28:56.999Z,111.23
2022-11-29T14:31:43.198Z,94.15
2022-11-29T14:34:13.750Z,91.78
2022-11-29T14:36:46.383Z,101.65
2022-11-29T14:39:27.166Z,102.97
2022-11-29T14:42:01.922Z,101.22
2022-11-29T14:44:29.853Z,112.30
2022-11-29T14:49:25.488Z,107.30
2022-11-29T14:52:11.611Z,128.48
2022-11-29T14:54:54.592Z,116.95
2022-11-29T14:57:37.516Z,111.18
2022-11-29T15:00:10.861Z,111.70
2022-11-29T15:02:40.404Z,119.88
2022-11-29T15:05:13.180Z,114.57
2022-11-29T15:07:44.192Z,108.82
2022-11-29T15:10:17.728Z,114.75
2022-11-29T15:12:45.758Z,98.32
2022-11-29T15:15:21.763Z,118.93
2022-11-29T15:17:53.169Z,104.72
2022-11-29T15:20:31.776Z,112.55
2022-11-29T15:23:00.921Z,113.55
2022-11-29T15:25:30.891Z,101.68
2022-11-29T15:27:59.384Z,114.60
2022-11-29T15:30:33.901Z,116.30
2022-11-29T15:33:02.670Z,95.50
2022-11-29T15:35:30.142Z,104.47
2022-11-29T15:37:57.641Z,105.10
2022-11-29T15:40:31.205Z,111.88
2022-11-29T15:43:01.923Z,108.32
2022-11-29T15:45:31.155Z,112.50
2022-11-29T15:48:13.670Z,117.32
2022-11-29T15:50:43.791Z,105.47
2022-11-29T15:53:16.086Z,138.93
2022-11-29T15:55:43.567Z,118.22
2022-11-29T15:58:13.011Z,109.72
2022-11-29T16:00:41.013Z,102.63
2022-11-29T16:03:13.453Z,103.28
2022-11-29T16:05:42.322Z,105.05
2022-11-29T16:08:14.249Z,124.63
2022-11-29T16:10:43.490Z,98.45
2022-11-29T16:13:30.953Z,115.32
2022-11-29T16:16:05.508Z,104.82
2022-11-29T16:18:33.099Z,106.15
2022-11-29T16:21:02.303Z,100.97
2022-11-29T16:23:34.133Z,109.95
2022-11-29T16:26:02.957Z,108.93
2022-11-29T16:28:32.708Z,94.88
2022-11-29T16:31:00.614Z,109.22
2022-11-29T16:36:05.477Z,107.20
2022-11-29T16:38:32.934Z,98.65
2022-11-29T16:41:05.090Z,105.97
2022-11-29T16:43:53.717Z,105.50
2022-11-29T16:46:30.040Z,97.90
2022-11-29T16:48:58.299Z,92.90
2022-11-29T16:51:27.819Z,90.72
2022-11-29T16:53:55.744Z,90.25
2022-11-29T16:56:24.203Z,97.53
2022-11-29T16:59:17.351Z,93.30
2022-11-29T17:01:40.885Z,75.65
2022-11-29T17:04:09.559Z,96.65
2022-11-29T17:06:38.836Z,77.70
2022-11-29T17:09:06.389Z,93.13
2022-11-29T17:11:33.791Z,88.80
2022-11-29T17:14:01.209Z,88.57
2022-11-29T17:16:28.682Z,94.18
2022-11-29T17:18:56.168Z,96.57
2022-11-29T17:21:24.252Z,78.97
2022-11-29T17:23:53.325Z,94.78
2022-11-29T17:26:21.305Z,101.75
2022-11-29T17:28:49.166Z,93.40
2022-11-29T17:31:17.201Z,85.18
2022-11-29T17:33:44.710Z,82.55
2022-11-29T17:36:15.068Z,90.07
2022-11-29T17:38:42.800Z,83.78
2022-11-29T17:41:12.924Z,79.30
2022-11-29T17:43:40.851Z,96.35
2022-11-29T17:48:35.671Z,96.03
2022-11-29T17:51:07.015Z,86.53
2022-11-29T17:56:08.991Z,84.53
2022-11-29T17:58:38.319Z,80.45
2022-11-29T18:01:06.638Z,90.55
2022-11-29T18:03:38.567Z,82.50
2022-11-29T18:06:06.628Z,83.55
2022-11-29T18:08:37.594Z,93.65
2022-11-29T18:11:05.778Z,89.97
2022-11-29T18:13:33.171Z,103.35
2022-11-29T18:16:06.787Z,88.07
2022-11-29T18:18:34.422Z,92.45
2022-11-29T18:21:02.184Z,117.10
2022-11-29T18:23:30.075Z,98.68
2022-11-29T18:28:24.764Z,101.60
2022-11-29T18:30:52.168Z,108.13
2022-11-29T18:33:21.223Z,102.82
2022-11-29T18:35:48.606Z,103.03
2022-11-29T18:38:16.646Z,100.78
2022-11-29T18:40:45.481Z,113.80
2022-11-29T18:43:13.091Z,103.28
2022-11-29T18:45:40.549Z,102.32
2022-11-29T18:48:08.001Z,107.38
2022-11-29T18:50:36.707Z,137.02
2022-11-29T18:53:04.102Z,111.75
2022-11-29T18:55:31.509Z,115.78
2022-11-29T18:57:58.912Z,124.82
2022-11-29T19:00:26.331Z,109.53
2022-11-29T19:02:53.973Z,118.97
2022-11-29T19:05:21.369Z,122.97
2022-11-29T19:07:50.117Z,130.07
2022-11-29T19:10:17.637Z,135.45
2022-11-29T19:12:45.023Z,117.82
2022-11-29T19:15:12.431Z,122.22
2022-11-29T19:17:43.132Z,127.50
2022-11-29T19:20:11.895Z,110.40
2022-11-29T19:22:39.259Z,125.65
2022-11-29T19:25:08.938Z,104.80
2022-11-29T19:27:36.271Z,111.10
2022-11-29T19:30:03.711Z,118.68
2022-11-29T19:32:31.066Z,116.57
2022-11-29T19:34:58.423Z,124.45
2022-11-29T19:37:25.775Z,103.72
2022-11-29T19:39:53.152Z,107.43
2022-11-29T19:42:22.050Z,103.82
2022-11-29T19:45:17.722Z,106.68
2022-11-29T19:47:36.719Z,117.65
2022-11-29T19:50:04.132Z,111.75
2022-11-29T19:52:31.558Z,106.75
2022-11-29T19:54:59.594Z,94.47
2022-11-29T19:57:28.869Z,107.28
2022-11-29T19:59:56.233Z,106.00
2022-11-29T20:02:23.737Z,112.40
2022-11-29T20:04:51.712Z,118.03
2022-11-29T20:09:46.640Z,112.97
2022-11-29T20:12:14.179Z,136.35
2022-11-29T20:14:42.887Z,118.05
2022-11-29T20:17:10.265Z,129.48
2022-11-29T20:19:37.702Z,139.13
2022-11-29T20:22:05.098Z,136.75
2022-11-29T20:24:39.040Z,168.18
2022-11-29T20:27:08.733Z,154.93
2022-11-29T20:29:37.003Z,162.90
2022-11-29T20:32:05.977Z,147.85
2022-11-29T20:34:33.509Z,142.10
2022-11-29T20:37:13.012Z,178.80
2022-11-29T20:39:43.223Z,159.65
2022-11-29T20:42:19.474Z,154.40
2022-11-29T20:44:49.654Z,162.05
2022-11-29T20:47:19.518Z,149.40
2022-11-29T20:49:47.129Z,147.10
2022-11-29T20:52:20.314Z,134.32
2022-11-29T20:54:47.720Z,150.95
2022-11-29T20:57:15.105Z,141.68
2022-11-29T20:59:42.457Z,143.65
2022-11-29T21:02:09.866Z,135.18
2022-11-29T21:04:38.568Z,152.20
2022-11-29T21:07:05.910Z,152.75
2022-11-29T21:09:33.814Z,174.38
2022-11-29T21:14:28.619Z,151.40
2022-11-29T21:16:56.247Z,160.75
2022-11-29T21:19:25.265Z,160.68
2022-11-29T21:21:59.323Z,155.05
2022-11-29T21:24:32.792Z,180.55
2022-11-29T21:27:00.209Z,187.95
2022-11-29T21:29:27.822Z,180.25
2022-11-29T21:31:55.707Z,153.88
2022-11-29T21:36:54.070Z,172.82
2022-11-29T21:39:25.392Z,168.52
2022-11-29T21:41:52.731Z,172.13
2022-11-29T21:44:20.094Z,163.30
2022-11-29T21:46:47.486Z,171.02
2022-11-29T21:49:14.908Z,154.23
2022-11-29T21:51:42.621Z,171.20
2022-11-29T21:54:09.969Z,171.93
2022-11-29T21:56:38.663Z,170.13
2022-11-29T21:59:06.091Z,188.25
2022-11-29T22:01:33.993Z,187.50
2022-11-29T22:06:29.311Z,155.40
2022-11-29T22:08:56.949Z,170.77
2022-11-29T22:11:31.674Z,186.70
2022-11-29T22:14:17.810Z,165.23
2022-11-29T22:16:46.264Z,179.50
2022-11-29T22:19:14.422Z,176.95
2022-11-29T22:21:42.113Z,167.90
2022-11-29T22:24:09.823Z,158.75
2022-11-29T22:26:37.454Z,173.65
2022-11-29T22:29:06.547Z,184.32
2022-11-29T22:31:35.173Z,185.45
2022-11-29T22:34:02.791Z,149.05
2022-11-29T22:36:30.159Z,172.23
2022-11-29T22:38:57.498Z,157.18
2022-11-29T22:41:25.574Z,153.02
2022-11-29T22:43:53.281Z,143.63
2022-11-29T22:46:23.068Z,152.40
2022-11-29T22:48:52.382Z,139.13
2022-11-29T22:51:20.728Z,162.07
2022-11-29T22:53:49.528Z,170.25
2022-11-29T22:56:16.903Z,156.45
2022-11-29T22:58:45.082Z,160.98
2022-11-29T23:01:13.860Z,145.18
2022-11-29T23:03:43.827Z,162.80
2022-11-29T23:06:12.031Z,178.93
2022-11-29T23:08:40.247Z,171.23
2022-11-29T23:11:08.720Z,161.93
2022-11-29T23:13:37.180Z,170.65
2022-11-29T23:16:05.881Z,170.45
2022-11-29T23:18:33.575Z,150.55
2022-11-29T23:21:02.992Z,186.18
2022-11-29T23:23:30.799Z,171.70
2022-11-29T23:25:58.564Z,154.48
2022-11-29T23:30:54.203Z,173.07
2022-11-29T23:33:22.019Z,153.38
2022-11-29T23:38:18.715Z,191.00
2022-11-29T23:40:46.058Z,175.20
2022-11-29T23:43:14.410Z,184.40
2022-11-29T23:45:42.241Z,198.32
2022-11-29T23:48:09.663Z,198.30
2022-11-29T23:50:36.995Z,195.48
2022-11-29T23:53:04.829Z,208.27
2022-11-29T23:55:33.579Z,194.05
2022-11-29T23:58:01.364Z,204.40
